Naples, Florida
Current Conditions -  °F | °C
As of 2:53 AM on Wednesday 22 Oct 2014 (Local Time) from KAPF Reporting Station
Clear Clear  
Wind Chill: 73°   Ceiling: Unl
Heat Index: 73°   Visibility: 10mi
Dew Point: 71°   Wind: 3mph
Humidity: 93%   Direction: 50°NE
Pressure: 29.91"   Gusts: NA
Location:  26.14°N, 81.79°W
Report Text: KAPF 220653Z 05003KT 10SM CLR 23/22 A2991 RMK AO2 SLP126 T02280217
Loading
Personal Weather Stations






























Interactive Weather Map
Tropical Storm Tracking
New forecast layout! Learn more

10-Day Weather Forecast

Advertisements
Track Severe Weather on mobile